Terminal Aerodrome Forecast
Issued by NWS Twin Cities, MN

Home | Current Version | Previous Version | Graphics & Text | Print | Product List | Glossary On
Versions: 1 2 3 4 5 6 7 8 9 10 11 12 13 14 15 16
781
FTUS43 KMPX 080537
TAFEAU
TAF
KEAU 080537Z 0806/0906 30014G22KT 4SM -SN BLSN OVC020
      TEMPO 0806/0810 2SM -SN BLSN OVC015
     FM081700 32015G24KT P6SM OVC020=

USA.gov is the U.S. government's official web portal to all federal, state and local government web resources and services.